createdAt,value
2019-03-03T00:02:26.975Z,88.50
2019-03-03T00:04:53.922Z,88.60
2019-03-03T00:07:21.312Z,88.40
2019-03-03T00:09:48.244Z,88.60
2019-03-03T00:12:15.190Z,88.70
2019-03-03T00:14:42.172Z,88.60
2019-03-03T00:17:09.168Z,88.40
2019-03-03T00:19:36.119Z,88.10
2019-03-03T00:22:03.069Z,88.10
2019-03-03T00:24:30.028Z,88.00
2019-03-03T00:26:57.009Z,88.10
2019-03-03T00:29:23.967Z,88.10
2019-03-03T00:31:50.962Z,87.90
2019-03-03T00:34:17.921Z,88.00
2019-03-03T00:36:50.783Z,88.00
2019-03-03T00:39:33.072Z,87.60
2019-03-03T00:42:05.804Z,87.70
2019-03-03T00:44:43.765Z,87.60
2019-03-03T00:47:20.973Z,86.80
2019-03-03T00:49:57.339Z,86.50
2019-03-03T00:52:32.785Z,85.80
2019-03-03T00:55:09.047Z,85.30
2019-03-03T00:57:41.799Z,84.80
2019-03-03T01:00:23.205Z,84.80
2019-03-03T01:02:56.997Z,85.30
2019-03-03T01:05:39.321Z,85.80
2019-03-03T01:08:29.861Z,85.80
2019-03-03T01:11:06.913Z,84.70
2019-03-03T01:13:40.775Z,85.10
2019-03-03T01:16:14.936Z,84.90
2019-03-03T01:18:52.848Z,84.40
2019-03-03T01:21:32.872Z,84.60
2019-03-03T01:24:21.365Z,85.40
2019-03-03T01:26:48.316Z,85.40
2019-03-03T01:29:15.260Z,85.80
2019-03-03T01:31:42.222Z,85.90
2019-03-03T01:34:09.180Z,86.00
2019-03-03T01:36:36.125Z,85.90
2019-03-03T01:39:04.093Z,85.90
2019-03-03T01:41:31.044Z,85.60
2019-03-03T01:43:57.979Z,85.70
2019-03-03T01:46:24.968Z,85.70
2019-03-03T01:48:51.911Z,85.20
2019-03-03T01:51:18.846Z,84.80
2019-03-03T01:53:46.366Z,84.80
2019-03-03T01:56:13.301Z,84.80
2019-03-03T01:58:40.257Z,84.40
2019-03-03T02:01:07.199Z,84.40
2019-03-03T02:03:34.152Z,84.40
2019-03-03T02:06:01.092Z,84.40
2019-03-03T02:08:28.046Z,84.40
2019-03-03T02:10:54.987Z,84.20
2019-03-03T02:13:21.928Z,84.00
2019-03-03T02:15:48.896Z,83.70
2019-03-03T02:18:15.869Z,84.70
2019-03-03T02:20:42.804Z,83.80
2019-03-03T02:23:09.784Z,83.80
2019-03-03T02:25:36.735Z,83.40
2019-03-03T02:28:03.679Z,82.70
2019-03-03T02:30:30.631Z,82.70
2019-03-03T02:32:57.560Z,82.90
2019-03-03T02:35:24.509Z,82.80
2019-03-03T02:37:51.456Z,83.10
2019-03-03T02:40:18.441Z,83.30
2019-03-03T02:42:45.379Z,83.50
2019-03-03T02:45:13.010Z,83.40
2019-03-03T02:47:39.943Z,83.40
2019-03-03T02:50:08.307Z,83.30
2019-03-03T02:52:35.254Z,83.30
2019-03-03T02:55:04.368Z,83.10
2019-03-03T02:57:31.337Z,83.50
2019-03-03T02:59:58.316Z,82.90
2019-03-03T03:02:49.678Z,82.80
2019-03-03T03:05:22.065Z,82.80
2019-03-03T03:07:53.503Z,83.00
2019-03-03T03:10:27.932Z,82.90
2019-03-03T03:13:05.528Z,83.10
2019-03-03T03:15:52.140Z,82.50
2019-03-03T03:18:28.178Z,82.60
2019-03-03T03:21:09.793Z,83.00
2019-03-03T03:23:46.444Z,82.90
2019-03-03T03:26:33.028Z,83.10
2019-03-03T03:29:21.372Z,83.00
2019-03-03T03:31:56.986Z,82.40
2019-03-03T03:34:28.711Z,82.60
2019-03-03T03:37:09.120Z,83.10
2019-03-03T03:39:41.751Z,82.60
2019-03-03T03:42:16.303Z,82.40
2019-03-03T03:44:52.140Z,82.70
2019-03-03T03:47:24.430Z,82.70
2019-03-03T03:50:11.978Z,83.00
2019-03-03T03:52:45.554Z,82.90
2019-03-03T03:55:33.407Z,83.10
2019-03-03T03:58:21.970Z,83.20
2019-03-03T04:01:10.518Z,83.40
2019-03-03T04:03:43.468Z,83.90
2019-03-03T04:06:17.391Z,83.90
2019-03-03T04:08:50.606Z,84.30
2019-03-03T04:11:24.904Z,84.80
2019-03-03T04:14:00.372Z,84.90
2019-03-03T04:16:33.359Z,85.20
2019-03-03T04:19:11.775Z,85.20
2019-03-03T04:21:52.945Z,85.30
2019-03-03T04:24:41.463Z,85.30
2019-03-03T04:27:14.267Z,84.90
2019-03-03T04:29:49.944Z,85.30
2019-03-03T04:32:22.603Z,85.30
2019-03-03T04:34:54.905Z,85.30
2019-03-03T04:37:35.493Z,85.30
2019-03-03T04:40:07.640Z,85.40
2019-03-03T04:42:47.077Z,85.50
2019-03-03T04:45:20.932Z,85.70
2019-03-03T04:48:00.611Z,85.40
2019-03-03T04:50:39.084Z,85.30
2019-03-03T04:53:14.388Z,85.10
2019-03-03T04:56:02.305Z,84.80
2019-03-03T04:58:35.187Z,84.90
2019-03-03T05:01:10.056Z,84.70
2019-03-03T05:03:56.607Z,84.60
2019-03-03T05:06:30.706Z,84.80
2019-03-03T05:09:02.053Z,84.70
2019-03-03T05:12:11.886Z,84.70
2019-03-03T05:14:38.979Z,84.70
2019-03-03T05:17:13.975Z,84.40
2019-03-03T05:19:45.712Z,84.30
2019-03-03T05:22:12.658Z,84.10
2019-03-03T05:24:39.620Z,84.10
2019-03-03T05:27:06.545Z,84.00
2019-03-03T05:29:33.485Z,84.10
2019-03-03T05:32:00.436Z,83.90
2019-03-03T05:34:27.405Z,84.00
2019-03-03T05:36:54.336Z,83.80
2019-03-03T05:39:21.307Z,84.00
2019-03-03T05:41:48.239Z,83.90
2019-03-03T05:44:15.176Z,83.70
2019-03-03T05:46:42.139Z,83.60
2019-03-03T05:49:09.105Z,83.50
2019-03-03T05:51:36.048Z,83.40
2019-03-03T05:54:03.010Z,83.50
2019-03-03T05:56:30.423Z,83.30
2019-03-03T05:58:57.354Z,83.20
2019-03-03T06:01:24.317Z,83.20
2019-03-03T06:03:51.251Z,83.30
2019-03-03T06:06:18.196Z,83.40
2019-03-03T06:08:45.145Z,83.50
2019-03-03T06:11:12.084Z,83.50
2019-03-03T06:13:39.015Z,83.50
2019-03-03T06:16:05.975Z,83.70
2019-03-03T06:18:32.912Z,83.70
2019-03-03T06:20:59.853Z,83.50
2019-03-03T06:23:26.800Z,83.30
2019-03-03T06:25:53.747Z,83.10
2019-03-03T06:28:20.702Z,83.00
2019-03-03T06:30:47.677Z,82.70
2019-03-03T06:33:14.619Z,82.60
2019-03-03T06:35:41.568Z,82.60
2019-03-03T06:38:08.523Z,82.80
2019-03-03T06:40:35.456Z,82.60
2019-03-03T06:43:02.384Z,82.50
2019-03-03T06:45:29.349Z,82.40
2019-03-03T06:47:56.316Z,82.40
2019-03-03T06:50:23.251Z,82.20
2019-03-03T06:52:50.204Z,82.00
2019-03-03T06:55:17.143Z,82.10
2019-03-03T06:57:45.552Z,82.20
2019-03-03T07:00:14.675Z,81.90
2019-03-03T07:02:41.599Z,81.70
2019-03-03T07:05:09.118Z,81.70
2019-03-03T07:07:36.075Z,81.70
2019-03-03T07:10:03.111Z,81.20
2019-03-03T07:12:30.076Z,81.20
2019-03-03T07:14:57.024Z,81.00
2019-03-03T07:17:23.965Z,81.00
2019-03-03T07:19:50.900Z,80.90
2019-03-03T07:22:17.871Z,80.80
2019-03-03T07:24:44.816Z,79.70
2019-03-03T07:27:11.864Z,79.30
2019-03-03T07:29:38.829Z,79.20
2019-03-03T07:32:05.807Z,78.50
2019-03-03T07:34:32.747Z,78.20
2019-03-03T07:36:59.697Z,78.20
2019-03-03T07:39:26.633Z,78.40
2019-03-03T07:41:53.590Z,78.70
2019-03-03T07:44:20.558Z,78.80
2019-03-03T07:46:47.500Z,78.90
2019-03-03T07:49:14.428Z,79.00
2019-03-03T07:51:41.489Z,78.90
2019-03-03T07:54:08.463Z,79.20
2019-03-03T07:56:35.392Z,78.50
2019-03-03T07:59:02.742Z,78.50
2019-03-03T08:01:29.675Z,78.40
2019-03-03T08:03:56.617Z,78.60
2019-03-03T08:06:23.563Z,78.70
2019-03-03T08:08:50.545Z,79.00
2019-03-03T08:11:17.491Z,79.20
2019-03-03T08:13:44.448Z,79.50
2019-03-03T08:16:11.392Z,79.30
2019-03-03T08:18:38.331Z,79.20
2019-03-03T08:21:05.289Z,79.00
2019-03-03T08:23:32.219Z,79.30
2019-03-03T08:25:59.200Z,79.10
2019-03-03T08:28:26.147Z,79.00
2019-03-03T08:30:53.097Z,79.30
2019-03-03T08:33:20.037Z,79.20
2019-03-03T08:35:47.039Z,79.20
2019-03-03T08:38:14.041Z,78.90
2019-03-03T08:40:41.002Z,78.90
2019-03-03T08:43:15.524Z,79.30
2019-03-03T08:46:04.992Z,79.20
2019-03-03T08:48:43.888Z,79.20
2019-03-03T08:51:20.456Z,79.40
2019-03-03T08:53:57.774Z,79.00
2019-03-03T08:56:33.287Z,79.00
2019-03-03T08:59:06.602Z,79.30
2019-03-03T09:01:46.119Z,78.90
2019-03-03T09:04:30.075Z,79.30
2019-03-03T09:07:17.584Z,80.00
2019-03-03T09:09:50.491Z,79.10
2019-03-03T09:12:23.488Z,79.10
2019-03-03T09:15:04.169Z,79.20
2019-03-03T09:17:54.647Z,79.10
2019-03-03T09:20:30.501Z,78.60
2019-03-03T09:23:03.224Z,78.20
2019-03-03T09:25:43.256Z,78.10
2019-03-03T09:28:20.520Z,78.00
2019-03-03T09:30:55.367Z,78.00
2019-03-03T09:33:33.772Z,77.80
2019-03-03T09:36:06.415Z,78.10
2019-03-03T09:38:40.563Z,78.10
2019-03-03T09:41:20.748Z,77.50
2019-03-03T09:43:58.326Z,75.90
2019-03-03T09:46:37.791Z,76.70
2019-03-03T09:49:13.521Z,76.80
2019-03-03T09:51:47.908Z,76.80
2019-03-03T09:54:22.463Z,76.70
2019-03-03T09:57:11.828Z,76.40
2019-03-03T09:59:51.698Z,76.10
2019-03-03T10:02:30.036Z,76.00
2019-03-03T10:05:16.326Z,76.80
2019-03-03T10:07:53.956Z,75.50
2019-03-03T10:10:35.564Z,75.40
2019-03-03T10:13:09.437Z,75.70
2019-03-03T10:15:42.613Z,75.60
2019-03-03T10:18:16.482Z,75.20
2019-03-03T10:20:51.451Z,75.80
2019-03-03T10:23:25.579Z,75.10
2019-03-03T10:26:13.984Z,74.90
2019-03-03T10:28:55.341Z,74.40
2019-03-03T10:31:33.620Z,74.50
2019-03-03T10:34:13.891Z,74.30
2019-03-03T10:36:54.238Z,73.80
2019-03-03T10:39:33.285Z,74.10
2019-03-03T10:42:06.000Z,73.90
2019-03-03T10:44:38.844Z,73.90
2019-03-03T10:47:14.954Z,72.90
2019-03-03T10:49:53.231Z,72.80
2019-03-03T10:52:41.683Z,72.30
2019-03-03T10:55:12.923Z,72.40
2019-03-03T10:57:47.564Z,71.80
2019-03-03T11:00:20.561Z,71.30
2019-03-03T11:02:56.414Z,71.00
2019-03-03T11:05:39.739Z,71.20
2019-03-03T11:08:14.135Z,72.30
2019-03-03T11:10:57.515Z,71.20
2019-03-03T11:13:25.358Z,71.80
2019-03-03T11:16:00.810Z,71.70
2019-03-03T11:18:36.660Z,71.50
2019-03-03T11:21:26.236Z,71.00
2019-03-03T11:24:12.802Z,70.80
2019-03-03T11:26:51.553Z,70.80
2019-03-03T11:29:31.258Z,69.10
2019-03-03T11:32:13.845Z,68.50
2019-03-03T11:34:51.005Z,68.50
2019-03-03T11:37:25.951Z,68.70
2019-03-03T11:40:00.057Z,68.50
2019-03-03T11:42:39.915Z,68.20
2019-03-03T11:45:13.057Z,67.60
2019-03-03T11:48:04.543Z,68.10
2019-03-03T11:50:40.276Z,67.60
2019-03-03T11:53:12.936Z,66.90
2019-03-03T11:56:04.306Z,67.00
2019-03-03T11:58:51.785Z,66.50
2019-03-03T12:01:24.659Z,66.60
2019-03-03T12:04:06.012Z,66.40
2019-03-03T12:06:38.723Z,66.40
2019-03-03T12:09:24.300Z,66.40
2019-03-03T12:12:02.250Z,66.40
2019-03-03T12:14:49.664Z,66.20
2019-03-03T12:17:24.815Z,66.80
2019-03-03T12:20:03.563Z,67.20
2019-03-03T12:22:41.543Z,67.30
2019-03-03T12:28:01.471Z,67.40
2019-03-03T12:30:49.892Z,67.40
2019-03-03T12:33:23.416Z,67.80
2019-03-03T12:36:11.832Z,66.50
2019-03-03T12:38:46.504Z,67.80
2019-03-03T12:41:38.055Z,67.70
2019-03-03T12:44:16.244Z,67.70
2019-03-03T12:46:50.854Z,67.90
2019-03-03T12:49:26.446Z,67.70
2019-03-03T12:52:02.052Z,68.70
2019-03-03T12:54:39.012Z,67.50
2019-03-03T12:57:12.842Z,67.40
2019-03-03T12:59:47.187Z,66.70
2019-03-03T13:02:23.860Z,66.00
2019-03-03T13:05:15.732Z,65.20
2019-03-03T13:07:49.185Z,64.50
2019-03-03T13:10:25.464Z,64.30
2019-03-03T13:13:13.856Z,63.90
2019-03-03T13:15:50.791Z,64.10
2019-03-03T13:18:29.732Z,64.50
2019-03-03T13:21:07.629Z,64.50
2019-03-03T13:23:40.352Z,64.80
2019-03-03T13:26:16.255Z,65.20
2019-03-03T13:28:54.365Z,65.90
2019-03-03T13:31:28.023Z,66.10
2019-03-03T13:34:07.132Z,66.30
2019-03-03T13:36:45.635Z,66.10
2019-03-03T13:39:18.593Z,66.40
2019-03-03T13:41:52.021Z,66.60
2019-03-03T13:44:18.972Z,67.00
2019-03-03T13:46:45.905Z,66.80
2019-03-03T13:49:12.881Z,67.10
2019-03-03T13:51:39.819Z,67.10
2019-03-03T13:54:06.770Z,67.00
2019-03-03T13:56:33.751Z,67.20
2019-03-03T13:59:00.688Z,67.50
2019-03-03T14:01:27.639Z,67.50
2019-03-03T14:03:54.600Z,67.90
2019-03-03T14:06:22.159Z,67.70
2019-03-03T14:08:49.104Z,68.00
2019-03-03T14:11:26.345Z,68.00
2019-03-03T14:13:53.310Z,68.10
2019-03-03T14:16:20.259Z,68.20
2019-03-03T14:18:47.227Z,68.40
2019-03-03T14:21:14.183Z,68.00
2019-03-03T14:23:41.138Z,68.20
2019-03-03T14:26:08.128Z,68.50
2019-03-03T14:28:35.063Z,68.30
2019-03-03T14:31:02.009Z,68.20
2019-03-03T14:33:28.970Z,68.40
2019-03-03T14:35:55.911Z,67.90
2019-03-03T14:38:22.845Z,68.00
2019-03-03T14:40:49.789Z,67.00
2019-03-03T14:43:16.728Z,67.50
2019-03-03T14:45:43.693Z,66.40
2019-03-03T14:48:10.636Z,66.70
2019-03-03T14:50:37.566Z,65.40
2019-03-03T14:53:04.509Z,66.10
2019-03-03T14:55:31.468Z,65.70
2019-03-03T14:57:58.418Z,66.00
2019-03-03T15:00:27.936Z,65.60
2019-03-03T15:02:55.509Z,65.70
2019-03-03T15:05:22.460Z,66.60
2019-03-03T15:07:49.808Z,64.80
2019-03-03T15:10:16.754Z,64.10
2019-03-03T15:12:43.745Z,63.60
2019-03-03T15:15:10.752Z,62.10
2019-03-03T15:17:37.700Z,63.70
2019-03-03T15:20:04.657Z,64.00
2019-03-03T15:22:31.592Z,64.10
2019-03-03T15:24:58.539Z,64.20
2019-03-03T15:27:25.502Z,63.80
2019-03-03T15:29:52.432Z,64.40
2019-03-03T15:32:19.423Z,62.60
2019-03-03T15:34:46.374Z,62.60
2019-03-03T15:37:15.526Z,62.90
2019-03-03T15:39:42.478Z,63.50
2019-03-03T15:42:09.441Z,63.60
2019-03-03T15:44:36.384Z,63.80
2019-03-03T15:47:03.484Z,63.90
2019-03-03T15:49:30.427Z,64.30
2019-03-03T15:51:57.372Z,64.30
2019-03-03T15:54:24.344Z,64.70
2019-03-03T15:56:51.294Z,64.90
2019-03-03T15:59:18.259Z,64.30
2019-03-03T16:01:45.212Z,64.60
2019-03-03T16:04:12.175Z,64.80
2019-03-03T16:06:39.144Z,64.90
2019-03-03T16:09:08.109Z,64.90
2019-03-03T16:11:35.049Z,65.10
2019-03-03T16:14:01.979Z,65.30
2019-03-03T16:16:28.962Z,64.70
2019-03-03T16:18:55.905Z,65.10
2019-03-03T16:21:22.832Z,65.90
2019-03-03T16:23:49.783Z,65.40
2019-03-03T16:26:16.740Z,65.70
2019-03-03T16:28:43.670Z,66.60
2019-03-03T16:31:10.668Z,65.80
2019-03-03T16:33:37.626Z,65.80
2019-03-03T16:36:04.570Z,65.80
2019-03-03T16:38:31.539Z,65.80
2019-03-03T16:40:58.504Z,66.30
2019-03-03T16:43:25.432Z,66.30
2019-03-03T16:45:52.435Z,66.50
2019-03-03T16:48:19.393Z,66.80
2019-03-03T16:50:46.324Z,66.70
2019-03-03T16:53:13.282Z,67.00
2019-03-03T16:55:40.227Z,67.10
2019-03-03T16:58:07.223Z,67.10
2019-03-03T17:00:34.184Z,67.20
2019-03-03T17:03:01.119Z,67.00
2019-03-03T17:05:28.109Z,67.40
2019-03-03T17:07:55.050Z,67.70
2019-03-03T17:10:23.408Z,68.10
2019-03-03T17:12:50.371Z,68.10
2019-03-03T17:15:18.948Z,67.70
2019-03-03T17:17:46.577Z,67.40
2019-03-03T17:20:13.537Z,68.30
2019-03-03T17:22:40.484Z,68.20
2019-03-03T17:25:10.018Z,67.90
2019-03-03T17:27:37.024Z,67.60
2019-03-03T17:30:04.343Z,67.30
2019-03-03T17:32:31.319Z,67.70
2019-03-03T17:34:58.257Z,67.30
2019-03-03T17:37:25.216Z,67.50
2019-03-03T17:39:52.161Z,67.70
2019-03-03T17:42:19.112Z,67.70
2019-03-03T17:44:46.340Z,67.80
2019-03-03T17:47:13.360Z,67.80
2019-03-03T17:49:40.279Z,68.10
2019-03-03T17:52:07.257Z,68.30
2019-03-03T17:54:34.236Z,68.10
2019-03-03T17:57:01.184Z,68.60
2019-03-03T17:59:28.152Z,69.10
2019-03-03T18:01:55.082Z,68.80
2019-03-03T18:04:22.022Z,69.10
2019-03-03T18:06:48.981Z,69.50
2019-03-03T18:09:15.967Z,69.90
2019-03-03T18:11:43.911Z,69.60
2019-03-03T18:14:18.691Z,69.90
2019-03-03T18:19:12.027Z,70.00
2019-03-03T18:21:33.646Z,69.50
2019-03-03T18:24:00.645Z,70.10
2019-03-03T18:26:27.722Z,70.30
2019-03-03T18:28:54.671Z,70.80
2019-03-03T18:31:21.669Z,71.00
2019-03-03T18:33:48.729Z,70.80
2019-03-03T18:36:15.745Z,70.90
2019-03-03T18:38:42.681Z,70.80
2019-03-03T18:41:09.624Z,71.00
2019-03-03T18:43:36.584Z,71.00
2019-03-03T18:46:05.161Z,70.90
2019-03-03T18:48:30.545Z,71.00
2019-03-03T18:50:57.762Z,71.00
2019-03-03T18:53:24.704Z,71.50
2019-03-03T18:55:51.671Z,71.60
2019-03-03T18:58:18.689Z,71.60
2019-03-03T19:00:45.672Z,71.50
2019-03-03T19:03:12.613Z,71.30
2019-03-03T19:05:39.568Z,71.20
2019-03-03T19:08:06.504Z,71.20
2019-03-03T19:10:33.510Z,71.20
2019-03-03T19:13:00.663Z,71.40
2019-03-03T19:15:27.797Z,71.40
2019-03-03T19:17:55.005Z,71.30
2019-03-03T19:20:22.004Z,71.40
2019-03-03T19:22:49.014Z,71.60
2019-03-03T19:25:16.209Z,71.30
2019-03-03T19:27:43.188Z,71.40
2019-03-03T19:30:13.671Z,71.40
2019-03-03T19:32:40.704Z,71.40
2019-03-03T19:35:07.813Z,71.20
2019-03-03T19:37:34.821Z,71.30
2019-03-03T19:40:01.988Z,71.50
2019-03-03T19:42:30.789Z,71.50
2019-03-03T19:44:56.020Z,71.90
2019-03-03T19:47:22.987Z,70.90
2019-03-03T19:49:50.521Z,71.90
2019-03-03T19:52:16.915Z,71.90
2019-03-03T19:54:43.851Z,72.00
2019-03-03T19:57:11.216Z,71.80
2019-03-03T19:59:38.167Z,71.70
2019-03-03T20:02:05.119Z,71.80
2019-03-03T20:04:32.983Z,72.90
2019-03-03T20:06:59.928Z,72.60
2019-03-03T20:09:26.889Z,74.00
2019-03-03T20:11:53.884Z,73.20
2019-03-03T20:14:21.174Z,73.40
2019-03-03T20:16:48.182Z,73.80
2019-03-03T20:19:15.155Z,74.10
2019-03-03T20:21:42.095Z,74.00
2019-03-03T20:24:09.032Z,73.90
2019-03-03T20:26:35.995Z,73.70
2019-03-03T20:29:02.966Z,73.80
2019-03-03T20:31:29.907Z,73.80
2019-03-03T20:33:58.616Z,74.00
2019-03-03T20:36:23.821Z,73.70
2019-03-03T20:38:50.767Z,73.60
2019-03-03T20:41:17.731Z,73.80
2019-03-03T20:43:44.683Z,73.90
2019-03-03T20:46:11.654Z,73.90
2019-03-03T20:48:38.651Z,73.80
2019-03-03T20:51:05.584Z,73.80
2019-03-03T20:53:32.572Z,73.80
2019-03-03T20:55:59.573Z,73.60
2019-03-03T20:58:26.543Z,73.60
2019-03-03T21:00:53.492Z,73.70
2019-03-03T21:03:21.755Z,74.00
2019-03-03T21:05:47.393Z,74.20
2019-03-03T21:08:14.339Z,74.40
2019-03-03T21:10:41.324Z,74.10
2019-03-03T21:13:08.289Z,74.10
2019-03-03T21:15:35.344Z,74.20
2019-03-03T21:18:02.328Z,74.50
2019-03-03T21:20:29.268Z,74.50
2019-03-03T21:23:13.316Z,74.70
2019-03-03T21:25:40.244Z,74.60
2019-03-03T21:28:07.216Z,74.40
2019-03-03T21:30:34.169Z,74.50
2019-03-03T21:33:01.119Z,74.70
2019-03-03T21:35:28.479Z,74.80
2019-03-03T21:37:55.438Z,74.60
2019-03-03T21:40:22.437Z,74.70
2019-03-03T21:42:52.945Z,74.90
2019-03-03T21:45:19.911Z,74.90
2019-03-03T21:47:46.923Z,74.90
2019-03-03T21:50:15.699Z,75.10
2019-03-03T21:52:43.132Z,75.10
2019-03-03T21:55:10.179Z,75.30
2019-03-03T21:57:37.142Z,75.70
2019-03-03T22:00:11.455Z,75.40
2019-03-03T22:02:38.578Z,75.60
2019-03-03T22:05:05.669Z,75.50
2019-03-03T22:07:32.644Z,75.60
2019-03-03T22:10:01.912Z,75.60
2019-03-03T22:12:28.845Z,76.10
2019-03-03T22:14:55.817Z,74.90
2019-03-03T22:17:52.741Z,75.50
2019-03-03T22:20:19.695Z,75.50
2019-03-03T22:22:47.291Z,75.40
2019-03-03T22:25:14.249Z,75.60
2019-03-03T22:27:41.204Z,75.40
2019-03-03T22:30:10.336Z,75.20
2019-03-03T22:32:37.337Z,75.10
2019-03-03T22:35:04.357Z,75.00
2019-03-03T22:37:31.295Z,74.90
2019-03-03T22:39:58.337Z,74.50
2019-03-03T22:42:25.283Z,74.50
2019-03-03T22:44:52.215Z,74.50
2019-03-03T22:47:19.172Z,74.20
2019-03-03T22:49:46.343Z,74.00
2019-03-03T22:52:13.291Z,74.30
2019-03-03T22:54:40.261Z,73.90
2019-03-03T22:57:07.208Z,73.70
2019-03-03T22:59:34.176Z,74.40
2019-03-03T23:02:01.157Z,73.70
2019-03-03T23:04:40.927Z,73.50
2019-03-03T23:07:16.134Z,73.60
2019-03-03T23:10:25.339Z,73.60
2019-03-03T23:13:05.708Z,73.40
2019-03-03T23:15:46.151Z,73.60
2019-03-03T23:18:24.391Z,73.40
2019-03-03T23:21:04.608Z,73.70
2019-03-03T23:23:56.050Z,73.60
2019-03-03T23:26:22.992Z,73.50
2019-03-03T23:28:49.941Z,73.20
2019-03-03T23:31:16.916Z,72.60
2019-03-03T23:33:43.883Z,72.80
2019-03-03T23:36:10.826Z,72.60
2019-03-03T23:38:37.768Z,72.70
2019-03-03T23:41:04.718Z,72.90
2019-03-03T23:43:31.687Z,72.80
2019-03-03T23:45:58.680Z,72.90
2019-03-03T23:48:25.649Z,72.70
2019-03-03T23:50:52.593Z,72.50
2019-03-03T23:53:19.565Z,72.70
2019-03-03T23:55:46.485Z,72.90
2019-03-03T23:58:13.421Z,72.90
